sensor_id;sensor_type;location;lat;lon;timestamp;pressure;altitude;pressure_sealevel;temperature;humidity
18988;BME280;5494;51.796;10.952;2023-04-03T00:01:26;100338.16;;;0.10;100.00
18988;BME280;5494;51.796;10.952;2023-04-03T00:04:14;100341.53;;;0.09;100.00
18988;BME280;5494;51.796;10.952;2023-04-03T00:07:04;100344.84;;;0.00;100.00
18988;BME280;5494;51.796;10.952;2023-04-03T00:09:52;100350.78;;;0.00;100.00
18988;BME280;5494;51.796;10.952;2023-04-03T00:12:40;100346.63;;;0.06;100.00
18988;BME280;5494;51.796;10.952;2023-04-03T00:15:29;100344.78;;;-0.03;100.00
18988;BME280;5494;51.796;10.952;2023-04-03T00:18:17;100350.78;;;-0.03;100.00
18988;BME280;5494;51.796;10.952;2023-04-03T00:21:06;100350.63;;;-0.12;100.00
18988;BME280;5494;51.796;10.952;2023-04-03T00:23:56;100346.44;;;-0.08;100.00
18988;BME280;5494;51.796;10.952;2023-04-03T00:26:44;100346.41;;;-0.10;100.00
18988;BME280;5494;51.796;10.952;2023-04-03T00:29:33;100340.50;;;-0.07;100.00
18988;BME280;5494;51.796;10.952;2023-04-03T00:32:21;100356.63;;;-0.10;100.00
18988;BME280;5494;51.796;10.952;2023-04-03T00:35:10;100356.50;;;-0.19;100.00
18988;BME280;5494;51.796;10.952;2023-04-03T00:37:58;100363.38;;;-0.13;100.00
18988;BME280;5494;51.796;10.952;2023-04-03T00:40:49;100367.53;;;-0.20;100.00
18988;BME280;5494;51.796;10.952;2023-04-03T00:43:38;100367.53;;;-0.20;100.00
18988;BME280;5494;51.796;10.952;2023-04-03T00:46:28;100369.16;;;-0.28;100.00
18988;BME280;5494;51.796;10.952;2023-04-03T00:49:16;100364.69;;;-0.40;100.00
18988;BME280;5494;51.796;10.952;2023-04-03T00:52:05;100377.53;;;-0.36;100.00
18988;BME280;5494;51.796;10.952;2023-04-03T00:55:02;100369.88;;;-0.33;100.00
18988;BME280;5494;51.796;10.952;2023-04-03T00:57:55;100370.75;;;-0.33;100.00
18988;BME280;5494;51.796;10.952;2023-04-03T01:00:50;100376.75;;;-0.31;100.00
18988;BME280;5494;51.796;10.952;2023-04-03T01:03:44;100380.09;;;-0.35;100.00
18988;BME280;5494;51.796;10.952;2023-04-03T01:06:37;100380.94;;;-0.36;100.00
18988;BME280;5494;51.796;10.952;2023-04-03T01:09:29;100381.72;;;-0.42;100.00
18988;BME280;5494;51.796;10.952;2023-04-03T01:12:21;100380.88;;;-0.39;100.00
18988;BME280;5494;51.796;10.952;2023-04-03T01:15:15;100380.72;;;-0.48;100.00
18988;BME280;5494;51.796;10.952;2023-04-03T01:18:04;100375.59;;;-0.50;100.00
18988;BME280;5494;51.796;10.952;2023-04-03T01:21:27;100385.94;;;-0.42;100.00
18988;BME280;5494;51.796;10.952;2023-04-03T01:24:33;100380.75;;;-0.47;100.00
18988;BME280;5494;51.796;10.952;2023-04-03T01:27:24;100386.72;;;-0.46;100.00
18988;BME280;5494;51.796;10.952;2023-04-03T01:30:18;100386.59;;;-0.54;100.00
18988;BME280;5494;51.796;10.952;2023-04-03T01:33:08;100384.78;;;-0.59;100.00
18988;BME280;5494;51.796;10.952;2023-04-03T01:35:57;100380.47;;;-0.65;100.00
18988;BME280;5494;51.796;10.952;2023-04-03T01:38:46;100385.69;;;-0.57;100.00
18988;BME280;5494;51.796;10.952;2023-04-03T01:41:35;100387.25;;;-0.65;100.00
18988;BME280;5494;51.796;10.952;2023-04-03T01:44:31;100384.72;;;-0.64;100.00
18988;BME280;5494;51.796;10.952;2023-04-03T01:47:21;100379.53;;;-0.70;100.00
18988;BME280;5494;51.796;10.952;2023-04-03T01:50:11;100384.59;;;-0.71;100.00
18988;BME280;5494;51.796;10.952;2023-04-03T01:52:59;100381.94;;;-0.77;100.00
18988;BME280;5494;51.796;10.952;2023-04-03T01:55:48;100393.13;;;-0.71;100.00
18988;BME280;5494;51.796;10.952;2023-04-03T01:58:36;100393.97;;;-0.70;100.00
18988;BME280;5494;51.796;10.952;2023-04-03T02:01:25;100399.94;;;-0.70;100.00
18988;BME280;5494;51.796;10.952;2023-04-03T02:04:13;100395.56;;;-0.75;100.00
18988;BME280;5494;51.796;10.952;2023-04-03T02:07:03;100400.72;;;-0.74;100.00
18988;BME280;5494;51.796;10.952;2023-04-03T02:09:52;100399.94;;;-0.68;100.00
18988;BME280;5494;51.796;10.952;2023-04-03T02:12:41;100399.03;;;-0.73;100.00
18988;BME280;5494;51.796;10.952;2023-04-03T02:15:29;100400.69;;;-0.75;100.00
18988;BME280;5494;51.796;10.952;2023-04-03T02:18:18;100405.00;;;-0.73;100.00
18988;BME280;5494;51.796;10.952;2023-04-03T02:21:06;100403.22;;;-0.75;100.00
18988;BME280;5494;51.796;10.952;2023-04-03T02:23:55;100404.03;;;-0.80;100.00
18988;BME280;5494;51.796;10.952;2023-04-03T02:26:44;100407.41;;;-0.81;100.00
18988;BME280;5494;51.796;10.952;2023-04-03T02:29:32;100409.06;;;-0.83;100.00
18988;BME280;5494;51.796;10.952;2023-04-03T02:32:21;100406.47;;;-0.86;100.00
18988;BME280;5494;51.796;10.952;2023-04-03T02:35:11;100415.75;;;-0.91;100.00
18988;BME280;5494;51.796;10.952;2023-04-03T02:38:00;100408.13;;;-0.88;100.00
18988;BME280;5494;51.796;10.952;2023-04-03T02:40:50;100410.59;;;-0.92;100.00
18988;BME280;5494;51.796;10.952;2023-04-03T02:43:39;100415.75;;;-0.91;100.00
18988;BME280;5494;51.796;10.952;2023-04-03T02:46:27;100419.03;;;-0.95;100.00
18988;BME280;5494;51.796;10.952;2023-04-03T02:49:16;100421.56;;;-0.96;100.00
18988;BME280;5494;51.796;10.952;2023-04-03T02:52:05;100420.69;;;-0.97;100.00
18988;BME280;5494;51.796;10.952;2023-04-03T02:54:53;100424.03;;;-1.01;100.00
18988;BME280;5494;51.796;10.952;2023-04-03T02:57:43;100425.81;;;-0.98;100.00
18988;BME280;5494;51.796;10.952;2023-04-03T03:00:33;100427.41;;;-1.02;100.00
18988;BME280;5494;51.796;10.952;2023-04-03T03:03:22;100423.03;;;-1.09;100.00
18988;BME280;5494;51.796;10.952;2023-04-03T03:06:13;100421.56;;;-0.98;100.00
18988;BME280;5494;51.796;10.952;2023-04-03T03:09:01;100430.84;;;-1.01;100.00
18988;BME280;5494;51.796;10.952;2023-04-03T03:11:50;100430.84;;;-1.01;100.00
18988;BME280;5494;51.796;10.952;2023-04-03T03:14:40;100418.00;;;-1.06;100.00
18988;BME280;5494;51.796;10.952;2023-04-03T03:17:29;100420.56;;;-1.06;100.00
18988;BME280;5494;51.796;10.952;2023-04-03T03:20:18;100436.66;;;-1.08;100.00
18988;BME280;5494;51.796;10.952;2023-04-03T03:23:06;100430.72;;;-1.07;100.00
18988;BME280;5494;51.796;10.952;2023-04-03T03:25:56;100431.63;;;-1.05;100.00
18988;BME280;5494;51.796;10.952;2023-04-03T03:28:44;100435.91;;;-1.03;100.00
18988;BME280;5494;51.796;10.952;2023-04-03T03:31:34;100433.28;;;-1.07;100.00
18988;BME280;5494;51.796;10.952;2023-04-03T03:34:22;100432.41;;;-1.08;100.00
18988;BME280;5494;51.796;10.952;2023-04-03T03:37:11;100437.47;;;-1.11;100.00
18988;BME280;5494;51.796;10.952;2023-04-03T03:40:00;100437.44;;;-1.12;100.00
18988;BME280;5494;51.796;10.952;2023-04-03T03:42:48;100433.16;;;-1.13;100.00
18988;BME280;5494;51.796;10.952;2023-04-03T03:45:37;100429.75;;;-1.14;100.00
18988;BME280;5494;51.796;10.952;2023-04-03T03:48:27;100442.41;;;-1.18;100.00
18988;BME280;5494;51.796;10.952;2023-04-03T03:51:16;100440.66;;;-1.21;100.00
18988;BME280;5494;51.796;10.952;2023-04-03T03:54:05;100439.66;;;-1.28;100.00
18988;BME280;5494;51.796;10.952;2023-04-03T03:56:54;100435.41;;;-1.29;100.00
18988;BME280;5494;51.796;10.952;2023-04-03T03:59:44;100441.28;;;-1.31;100.00
18988;BME280;5494;51.796;10.952;2023-04-03T04:02:32;100439.59;;;-1.32;100.00
18988;BME280;5494;51.796;10.952;2023-04-03T04:05:23;100441.28;;;-1.33;100.00
18988;BME280;5494;51.796;10.952;2023-04-03T04:08:13;100444.47;;;-1.41;100.00
18988;BME280;5494;51.796;10.952;2023-04-03T04:11:02;100444.66;;;-1.34;100.00
18988;BME280;5494;51.796;10.952;2023-04-03T04:13:52;100451.28;;;-1.42;100.00
18988;BME280;5494;51.796;10.952;2023-04-03T04:16:44;100447.03;;;-1.41;100.00
18988;BME280;5494;51.796;10.952;2023-04-03T04:19:38;100446.25;;;-1.39;100.00
18988;BME280;5494;51.796;10.952;2023-04-03T04:22:28;100446.34;;;-1.34;100.00
18988;BME280;5494;51.796;10.952;2023-04-03T04:25:16;100442.13;;;-1.32;100.00
18988;BME280;5494;51.796;10.952;2023-04-03T04:28:05;100446.28;;;-1.36;100.00
18988;BME280;5494;51.796;10.952;2023-04-03T04:30:54;100448.88;;;-1.34;100.00
18988;BME280;5494;51.796;10.952;2023-04-03T04:33:45;100452.19;;;-1.40;100.00
18988;BME280;5494;51.796;10.952;2023-04-03T04:36:34;100453.78;;;-1.43;100.00
18988;BME280;5494;51.796;10.952;2023-04-03T04:39:25;100453.59;;;-1.52;100.00
18988;BME280;5494;51.796;10.952;2023-04-03T04:42:16;100457.84;;;-1.53;100.00
18988;BME280;5494;51.796;10.952;2023-04-03T04:45:07;100463.03;;;-1.48;100.00
18988;BME280;5494;51.796;10.952;2023-04-03T04:47:57;100458.63;;;-1.55;100.00
18988;BME280;5494;51.796;10.952;2023-04-03T04:50:46;100465.28;;;-1.62;100.00
18988;BME280;5494;51.796;10.952;2023-04-03T04:53:34;100468.91;;;-1.52;100.00
18988;BME280;5494;51.796;10.952;2023-04-03T04:56:24;100472.66;;;-1.35;100.00
18988;BME280;5494;51.796;10.952;2023-04-03T04:59:15;100467.75;;;-1.26;100.00
18988;BME280;5494;51.796;10.952;2023-04-03T05:02:07;100467.38;;;-1.02;100.00
18988;BME280;5494;51.796;10.952;2023-04-03T05:04:57;100466.03;;;-0.85;100.00
18988;BME280;5494;51.796;10.952;2023-04-03T05:07:49;100466.56;;;-0.55;100.00
18988;BME280;5494;51.796;10.952;2023-04-03T05:10:38;100477.31;;;-0.26;100.00
18988;BME280;5494;51.796;10.952;2023-04-03T05:13:29;100466.66;;;-0.01;100.00
18988;BME280;5494;51.796;10.952;2023-04-03T05:16:17;100471.38;;;0.31;100.00
18988;BME280;5494;51.796;10.952;2023-04-03T05:18:46;100465.91;;;0.65;100.00
18988;BME280;5494;51.796;10.952;2023-04-03T05:21:18;100465.47;;;1.00;100.00
18988;BME280;5494;51.796;10.952;2023-04-03T05:23:48;100470.03;;;1.27;100.00
18988;BME280;5494;51.796;10.952;2023-04-03T05:26:17;100485.69;;;1.52;100.00
18988;BME280;5494;51.796;10.952;2023-04-03T05:28:49;100473.16;;;1.83;100.00
18988;BME280;5494;51.796;10.952;2023-04-03T05:31:18;100477.81;;;2.32;100.00
18988;BME280;5494;51.796;10.952;2023-04-03T05:33:46;100489.91;;;2.52;100.00
18988;BME280;5494;51.796;10.952;2023-04-03T05:36:17;100488.56;;;3.33;95.28
18988;BME280;5494;51.796;10.952;2023-04-03T05:38:49;100486.91;;;3.56;89.52
18988;BME280;5494;51.796;10.952;2023-04-03T05:41:19;100496.38;;;3.84;87.00
18988;BME280;5494;51.796;10.952;2023-04-03T05:43:48;100488.44;;;5.06;79.65
18988;BME280;5494;51.796;10.952;2023-04-03T05:46:19;100491.75;;;5.35;74.62
18988;BME280;5494;51.796;10.952;2023-04-03T05:48:52;100495.31;;;5.08;71.99
18988;BME280;5494;51.796;10.952;2023-04-03T05:51:28;100497.13;;;4.87;73.64
18988;BME280;5494;51.796;10.952;2023-04-03T05:54:10;100498.56;;;5.50;73.05
18988;BME280;5494;51.796;10.952;2023-04-03T05:56:41;100500.69;;;6.20;69.43
18988;BME280;5494;51.796;10.952;2023-04-03T05:59:10;100511.47;;;6.63;65.35
18988;BME280;5494;51.796;10.952;2023-04-03T06:01:38;100516.06;;;4.77;64.74
18988;BME280;5494;51.796;10.952;2023-04-03T06:04:07;100522.13;;;3.93;72.14
18988;BME280;5494;51.796;10.952;2023-04-03T06:06:46;100526.22;;;3.22;76.06
18988;BME280;5494;51.796;10.952;2023-04-03T06:09:15;100523.56;;;3.05;80.13
18988;BME280;5494;51.796;10.952;2023-04-03T06:11:44;100532.09;;;2.98;79.71
18988;BME280;5494;51.796;10.952;2023-04-03T06:14:13;100526.94;;;2.89;80.49
18988;BME280;5494;51.796;10.952;2023-04-03T06:16:41;100521.19;;;3.55;81.79
18988;BME280;5494;51.796;10.952;2023-04-03T06:19:11;100519.50;;;3.81;77.80
18988;BME280;5494;51.796;10.952;2023-04-03T06:21:45;100519.47;;;3.57;75.19
18988;BME280;5494;51.796;10.952;2023-04-03T06:24:16;100523.69;;;3.40;79.30
18988;BME280;5494;51.796;10.952;2023-04-03T06:26:44;100515.25;;;3.92;76.05
18988;BME280;5494;51.796;10.952;2023-04-03T06:29:14;100514.38;;;4.39;75.40
18988;BME280;5494;51.796;10.952;2023-04-03T06:31:42;100518.69;;;4.23;71.13
18988;BME280;5494;51.796;10.952;2023-04-03T06:34:10;100523.81;;;4.02;72.92
18988;BME280;5494;51.796;10.952;2023-04-03T06:36:39;100528.09;;;3.89;72.63
18988;BME280;5494;51.796;10.952;2023-04-03T06:39:09;100522.91;;;3.74;75.05
18988;BME280;5494;51.796;10.952;2023-04-03T06:41:39;100521.13;;;5.04;73.01
18988;BME280;5494;51.796;10.952;2023-04-03T06:44:07;100528.06;;;4.73;71.88
18988;BME280;5494;51.796;10.952;2023-04-03T06:46:39;100524.34;;;5.47;68.59
18988;BME280;5494;51.796;10.952;2023-04-03T06:49:07;100527.22;;;4.75;67.36
18988;BME280;5494;51.796;10.952;2023-04-03T06:51:36;100532.31;;;4.88;68.75
18988;BME280;5494;51.796;10.952;2023-04-03T06:54:06;100527.47;;;6.05;65.29
18988;BME280;5494;51.796;10.952;2023-04-03T06:56:35;100533.63;;;6.85;60.67
18988;BME280;5494;51.796;10.952;2023-04-03T06:59:03;100535.94;;;7.11;59.51
18988;BME280;5494;51.796;10.952;2023-04-03T07:01:31;100525.31;;;7.95;56.21
18988;BME280;5494;51.796;10.952;2023-04-03T07:04:01;100538.63;;;8.26;54.25
18988;BME280;5494;51.796;10.952;2023-04-03T07:06:29;100538.75;;;8.17;50.87
18988;BME280;5494;51.796;10.952;2023-04-03T07:08:58;100536.25;;;8.64;51.49
18988;BME280;5494;51.796;10.952;2023-04-03T07:11:26;100539.28;;;8.42;51.35
18988;BME280;5494;51.796;10.952;2023-04-03T07:13:54;100540.66;;;8.09;53.10
18988;BME280;5494;51.796;10.952;2023-04-03T07:16:23;100548.50;;;6.63;52.94
18988;BME280;5494;51.796;10.952;2023-04-03T07:18:51;100558.88;;;5.08;60.91
18988;BME280;5494;51.796;10.952;2023-04-03T07:21:20;100551.50;;;6.10;60.94
18988;BME280;5494;51.796;10.952;2023-04-03T07:23:51;100561.06;;;5.98;58.60
18988;BME280;5494;51.796;10.952;2023-04-03T07:26:20;100562.28;;;5.19;63.88
18988;BME280;5494;51.796;10.952;2023-04-03T07:28:49;100566.63;;;5.09;65.08
18988;BME280;5494;51.796;10.952;2023-04-03T07:31:17;100565.75;;;5.06;65.15
18988;BME280;5494;51.796;10.952;2023-04-03T07:33:45;100571.81;;;4.87;67.38
18988;BME280;5494;51.796;10.952;2023-04-03T07:36:18;100577.84;;;4.89;64.81
18988;BME280;5494;51.796;10.952;2023-04-03T07:38:48;100565.72;;;5.21;66.07
18988;BME280;5494;51.796;10.952;2023-04-03T07:41:19;100568.88;;;5.84;62.52
18988;BME280;5494;51.796;10.952;2023-04-03T07:43:49;100566.19;;;6.07;60.85
18988;BME280;5494;51.796;10.952;2023-04-03T07:46:17;100568.56;;;6.31;61.49
18988;BME280;5494;51.796;10.952;2023-04-03T07:48:45;100565.94;;;6.37;60.55
18988;BME280;5494;51.796;10.952;2023-04-03T07:51:13;100561.50;;;6.51;59.35
18988;BME280;5494;51.796;10.952;2023-04-03T07:53:42;100557.69;;;5.89;61.85
18988;BME280;5494;51.796;10.952;2023-04-03T07:56:11;100581.28;;;4.79;66.11
18988;BME280;5494;51.796;10.952;2023-04-03T07:58:39;100566.69;;;4.82;69.75
18988;BME280;5494;51.796;10.952;2023-04-03T08:01:07;100561.06;;;6.01;66.51
18988;BME280;5494;51.796;10.952;2023-04-03T08:03:36;100565.63;;;5.45;62.33
18988;BME280;5494;51.796;10.952;2023-04-03T08:06:07;100568.03;;;5.80;63.24
18988;BME280;5494;51.796;10.952;2023-04-03T08:08:41;100556.38;;;6.50;60.94
18988;BME280;5494;51.796;10.952;2023-04-03T08:11:14;100561.03;;;6.98;60.05
18988;BME280;5494;51.796;10.952;2023-04-03T08:13:42;100551.03;;;7.44;58.42
18988;BME280;5494;51.796;10.952;2023-04-03T08:16:13;100559.56;;;6.76;57.86
18988;BME280;5494;51.796;10.952;2023-04-03T08:18:43;100558.34;;;6.17;60.26
18988;BME280;5494;51.796;10.952;2023-04-03T08:21:12;100557.34;;;7.21;59.02
18988;BME280;5494;51.796;10.952;2023-04-03T08:23:41;100556.53;;;7.19;58.33
18988;BME280;5494;51.796;10.952;2023-04-03T08:26:10;100558.44;;;7.03;57.11
18988;BME280;5494;51.796;10.952;2023-04-03T08:28:42;100559.03;;;6.42;59.37
18988;BME280;5494;51.796;10.952;2023-04-03T08:31:13;100562.91;;;5.73;61.73
18988;BME280;5494;51.796;10.952;2023-04-03T08:33:42;100561.44;;;5.23;66.64
18988;BME280;5494;51.796;10.952;2023-04-03T08:36:19;100559.59;;;5.49;70.64
18988;BME280;5494;51.796;10.952;2023-04-03T08:38:47;100576.13;;;4.85;69.04
18988;BME280;5494;51.796;10.952;2023-04-03T08:41:25;100577.81;;;3.79;72.08
18988;BME280;5494;51.796;10.952;2023-04-03T08:44:15;100568.44;;;4.16;73.27
18988;BME280;5494;51.796;10.952;2023-04-03T08:46:58;100571.84;;;4.03;73.55
18988;BME280;5494;51.796;10.952;2023-04-03T08:49:33;100574.44;;;4.06;75.79
18988;BME280;5494;51.796;10.952;2023-04-03T08:52:09;100576.09;;;3.89;75.75
18988;BME280;5494;51.796;10.952;2023-04-03T08:54:50;100568.44;;;4.10;76.70
18988;BME280;5494;51.796;10.952;2023-04-03T08:57:28;100564.97;;;3.94;73.57
18988;BME280;5494;51.796;10.952;2023-04-03T09:00:05;100572.72;;;4.19;75.88
18988;BME280;5494;51.796;10.952;2023-04-03T09:02:43;100571.88;;;4.24;75.26
18988;BME280;5494;51.796;10.952;2023-04-03T09:05:20;100562.44;;;4.01;75.29
18988;BME280;5494;51.796;10.952;2023-04-03T09:08:00;100579.56;;;4.05;74.19
18988;BME280;5494;51.796;10.952;2023-04-03T09:10:37;100568.41;;;4.09;75.17
18988;BME280;5494;51.796;10.952;2023-04-03T09:13:17;100565.84;;;3.96;75.30
18988;BME280;5494;51.796;10.952;2023-04-03T09:15:50;100559.00;;;3.99;75.58
18988;BME280;5494;51.796;10.952;2023-04-03T09:18:26;100571.03;;;4.15;76.86
18988;BME280;5494;51.796;10.952;2023-04-03T09:21:04;100561.59;;;4.26;73.80
18988;BME280;5494;51.796;10.952;2023-04-03T09:23:42;100553.00;;;4.33;73.66
18988;BME280;5494;51.796;10.952;2023-04-03T09:26:17;100578.66;;;3.77;71.93
18988;BME280;5494;51.796;10.952;2023-04-03T09:28:47;100570.88;;;3.54;76.59
18988;BME280;5494;51.796;10.952;2023-04-03T09:31:22;100564.09;;;3.76;76.19
18988;BME280;5494;51.796;10.952;2023-04-03T09:33:56;100562.41;;;3.97;70.62
18988;BME280;5494;51.796;10.952;2023-04-03T09:36:42;100567.50;;;3.76;65.25
18988;BME280;5494;51.796;10.952;2023-04-03T09:39:14;100573.53;;;3.78;67.32
18988;BME280;5494;51.796;10.952;2023-04-03T09:41:58;100573.41;;;3.43;69.02
18988;BME280;5494;51.796;10.952;2023-04-03T09:44:30;100561.38;;;3.32;70.87
18988;BME280;5494;51.796;10.952;2023-04-03T09:47:22;100589.56;;;3.16;69.76
18988;BME280;5494;51.796;10.952;2023-04-03T09:50:10;100558.00;;;3.48;67.88
18988;BME280;5494;51.796;10.952;2023-04-03T09:52:46;100571.72;;;3.45;67.89
18988;BME280;5494;51.796;10.952;2023-04-03T09:55:17;100554.56;;;3.49;67.64
18988;BME280;5494;51.796;10.952;2023-04-03T09:57:46;100557.03;;;3.17;67.02
18988;BME280;5494;51.796;10.952;2023-04-03T10:00:23;100555.41;;;3.39;68.19
18988;BME280;5494;51.796;10.952;2023-04-03T10:02:55;100552.03;;;3.55;66.87
18988;BME280;5494;51.796;10.952;2023-04-03T10:05:32;100558.06;;;3.59;65.24
18988;BME280;5494;51.796;10.952;2023-04-03T10:08:10;100550.31;;;3.57;67.04
18988;BME280;5494;51.796;10.952;2023-04-03T10:10:44;100548.63;;;3.62;65.28
18988;BME280;5494;51.796;10.952;2023-04-03T10:13:16;100557.22;;;3.76;64.90
18988;BME280;5494;51.796;10.952;2023-04-03T10:15:55;100547.81;;;3.87;61.10
18988;BME280;5494;51.796;10.952;2023-04-03T10:18:33;100552.09;;;3.73;59.72
18988;BME280;5494;51.796;10.952;2023-04-03T10:21:10;100553.81;;;3.77;59.84
18988;BME280;5494;51.796;10.952;2023-04-03T10:24:05;100552.09;;;3.82;60.56
18988;BME280;5494;51.796;10.952;2023-04-03T10:26:45;100523.81;;;3.73;62.73
18988;BME280;5494;51.796;10.952;2023-04-03T10:29:30;100530.69;;;3.86;60.17
18988;BME280;5494;51.796;10.952;2023-04-03T10:32:26;100547.75;;;3.60;61.28
18988;BME280;5494;51.796;10.952;2023-04-03T10:35:08;100540.91;;;3.59;60.80
18988;BME280;5494;51.796;10.952;2023-04-03T10:37:55;100532.38;;;3.66;61.72
18988;BME280;5494;51.796;10.952;2023-04-03T10:40:35;100534.91;;;3.57;58.75
18988;BME280;5494;51.796;10.952;2023-04-03T10:43:18;100540.00;;;3.43;56.95
18988;BME280;5494;51.796;10.952;2023-04-03T10:46:00;100540.06;;;3.59;58.51
18988;BME280;5494;51.796;10.952;2023-04-03T10:48:43;100521.16;;;3.47;59.65
18988;BME280;5494;51.796;10.952;2023-04-03T10:51:25;100530.63;;;3.62;61.83
18988;BME280;5494;51.796;10.952;2023-04-03T10:54:05;100525.50;;;3.71;62.03
18988;BME280;5494;51.796;10.952;2023-04-03T10:56:39;100522.09;;;3.90;62.15
18988;BME280;5494;51.796;10.952;2023-04-03T10:59:22;100523.81;;;3.85;61.48
18988;BME280;5494;51.796;10.952;2023-04-03T11:01:59;100519.53;;;3.93;59.50
18988;BME280;5494;51.796;10.952;2023-04-03T11:04:34;100528.13;;;3.94;57.89
18988;BME280;5494;51.796;10.952;2023-04-03T11:07:15;100530.69;;;3.85;58.40
18988;BME280;5494;51.796;10.952;2023-04-03T11:09:50;100518.69;;;3.93;59.85
18988;BME280;5494;51.796;10.952;2023-04-03T11:12:26;100527.25;;;3.95;60.61
18988;BME280;5494;51.796;10.952;2023-04-03T11:14:57;100525.50;;;3.68;61.25
18988;BME280;5494;51.796;10.952;2023-04-03T11:17:33;100509.25;;;3.84;61.46
18988;BME280;5494;51.796;10.952;2023-04-03T11:20:10;100507.53;;;3.94;63.05
18988;BME280;5494;51.796;10.952;2023-04-03T11:22:50;100507.53;;;4.24;61.84
18988;BME280;5494;51.796;10.952;2023-04-03T11:25:24;100509.25;;;4.24;59.79
18988;BME280;5494;51.796;10.952;2023-04-03T11:27:56;100513.53;;;4.16;59.49
18988;BME280;5494;51.796;10.952;2023-04-03T11:30:30;100512.69;;;4.03;58.18
18988;BME280;5494;51.796;10.952;2023-04-03T11:33:24;100498.97;;;3.93;59.71
18988;BME280;5494;51.796;10.952;2023-04-03T11:36:00;100495.50;;;4.16;58.96
18988;BME280;5494;51.796;10.952;2023-04-03T11:38:49;100494.66;;;4.24;56.22
18988;BME280;5494;51.796;10.952;2023-04-03T11:41:28;100493.78;;;4.30;56.82
18988;BME280;5494;51.796;10.952;2023-04-03T11:44:00;100486.94;;;4.32;55.33
18988;BME280;5494;51.796;10.952;2023-04-03T11:46:52;100486.09;;;4.15;55.26
18988;BME280;5494;51.796;10.952;2023-04-03T11:49:54;100480.94;;;4.10;56.68
18988;BME280;5494;51.796;10.952;2023-04-03T11:52:57;100481.78;;;4.17;56.24
18988;BME280;5494;51.796;10.952;2023-04-03T11:55:52;100485.25;;;4.28;55.41
18988;BME280;5494;51.796;10.952;2023-04-03T11:58:24;100492.97;;;4.07;56.46
18988;BME280;5494;51.796;10.952;2023-04-03T12:01:02;100471.53;;;3.92;56.73
18988;BME280;5494;51.796;10.952;2023-04-03T12:04:07;100493.78;;;3.71;56.14
18988;BME280;5494;51.796;10.952;2023-04-03T12:10:16;100480.94;;;4.01;56.66
18988;BME280;5494;51.796;10.952;2023-04-03T12:13:00;100480.06;;;4.34;55.79
18988;BME280;5494;51.796;10.952;2023-04-03T12:15:55;100473.16;;;4.57;55.75
18988;BME280;5494;51.796;10.952;2023-04-03T12:19:00;100466.28;;;4.59;52.81
18988;BME280;5494;51.796;10.952;2023-04-03T12:22:07;100480.06;;;4.25;52.29
18988;BME280;5494;51.796;10.952;2023-04-03T12:24:37;100465.47;;;4.31;52.69
18988;BME280;5494;51.796;10.952;2023-04-03T12:27:25;100470.63;;;4.38;51.62
18988;BME280;5494;51.796;10.952;2023-04-03T12:30:04;100466.31;;;4.53;50.88
18988;BME280;5494;51.796;10.952;2023-04-03T12:32:51;100461.13;;;4.58;51.23
18988;BME280;5494;51.796;10.952;2023-04-03T12:35:51;100458.63;;;4.40;50.54
18988;BME280;5494;51.796;10.952;2023-04-03T12:38:58;100462.03;;;4.54;51.91
18988;BME280;5494;51.796;10.952;2023-04-03T12:41:38;100466.31;;;4.52;52.03
18988;BME280;5494;51.796;10.952;2023-04-03T12:44:31;100455.13;;;4.59;52.66
18988;BME280;5494;51.796;10.952;2023-04-03T12:47:23;100452.59;;;4.45;52.90
18988;BME280;5494;51.796;10.952;2023-04-03T12:49:53;100459.50;;;4.16;53.68
18988;BME280;5494;51.796;10.952;2023-04-03T12:52:33;100462.06;;;4.08;54.30
18988;BME280;5494;51.796;10.952;2023-04-03T12:55:14;100454.34;;;4.31;55.13
18988;BME280;5494;51.796;10.952;2023-04-03T12:57:43;100451.75;;;4.40;54.65
18988;BME280;5494;51.796;10.952;2023-04-03T13:00:33;100451.75;;;4.39;55.40
18988;BME280;5494;51.796;10.952;2023-04-03T13:03:06;100451.75;;;4.49;54.43
18988;BME280;5494;51.796;10.952;2023-04-03T13:05:35;100444.00;;;4.55;53.62
18988;BME280;5494;51.796;10.952;2023-04-03T13:08:10;100437.88;;;4.81;54.03
18988;BME280;5494;51.796;10.952;2023-04-03T13:10:54;100441.19;;;5.05;51.92
18988;BME280;5494;51.796;10.952;2023-04-03T13:13:23;100439.50;;;5.09;50.15
18988;BME280;5494;51.796;10.952;2023-04-03T13:15:54;100441.31;;;4.90;50.31
18988;BME280;5494;51.796;10.952;2023-04-03T13:18:30;100437.88;;;4.78;50.20
18988;BME280;5494;51.796;10.952;2023-04-03T13:21:05;100432.81;;;4.59;50.14
18988;BME280;5494;51.796;10.952;2023-04-03T13:23:37;100431.97;;;4.62;51.34
18988;BME280;5494;51.796;10.952;2023-04-03T13:26:07;100435.41;;;4.53;52.87
18988;BME280;5494;51.796;10.952;2023-04-03T13:28:36;100429.44;;;4.36;53.84
18988;BME280;5494;51.796;10.952;2023-04-03T13:31:15;100422.53;;;4.52;54.06
18988;BME280;5494;51.796;10.952;2023-04-03T13:33:56;100414.75;;;4.74;54.47
18988;BME280;5494;51.796;10.952;2023-04-03T13:36:30;100424.88;;;5.05;52.78
18988;BME280;5494;51.796;10.952;2023-04-03T13:39:05;100414.66;;;4.93;50.07
18988;BME280;5494;51.796;10.952;2023-04-03T13:41:37;100416.41;;;4.85;48.65
18988;BME280;5494;51.796;10.952;2023-04-03T13:44:30;100413.75;;;5.03;49.60
18988;BME280;5494;51.796;10.952;2023-04-03T13:47:01;100406.81;;;5.14;49.60
18988;BME280;5494;51.796;10.952;2023-04-03T13:49:45;100414.50;;;5.25;49.50
18988;BME280;5494;51.796;10.952;2023-04-03T13:52:23;100406.91;;;4.96;49.63
18988;BME280;5494;51.796;10.952;2023-04-03T13:54:59;100407.81;;;4.87;50.53
18988;BME280;5494;51.796;10.952;2023-04-03T13:57:33;100403.44;;;4.98;51.46
18988;BME280;5494;51.796;10.952;2023-04-03T14:00:30;100409.38;;;5.17;51.96
18988;BME280;5494;51.796;10.952;2023-04-03T14:02:59;100407.75;;;5.01;52.89
18988;BME280;5494;51.796;10.952;2023-04-03T14:05:29;100395.63;;;5.12;51.79
18988;BME280;5494;51.796;10.952;2023-04-03T14:07:57;100401.69;;;5.09;51.39